createdAt,value
2022-11-30T00:00:35.665Z,10.10
2022-11-30T00:03:15.787Z,10.10
2022-11-30T00:06:02.656Z,10.27
2022-11-30T00:08:42.706Z,9.82
2022-11-30T00:11:31.673Z,9.90
2022-11-30T00:14:11.759Z,10.18
2022-11-30T00:16:58.771Z,10.43
2022-11-30T00:19:38.693Z,9.98
2022-11-30T00:22:25.636Z,9.23
2022-11-30T00:25:12.673Z,9.75
2022-11-30T00:30:39.709Z,10.30
2022-11-30T00:33:20.214Z,10.40
2022-11-30T00:36:14.648Z,9.98
2022-11-30T00:38:56.107Z,9.60
2022-11-30T00:41:42.709Z,10.18
2022-11-30T00:44:29.711Z,9.55
2022-11-30T00:47:09.673Z,9.35
2022-11-30T00:49:56.665Z,10.05
2022-11-30T00:55:32.775Z,9.93
2022-11-30T00:58:13.698Z,9.90
2022-11-30T01:01:00.689Z,10.65
2022-11-30T01:03:41.728Z,10.57
2022-11-30T01:06:28.666Z,10.15
2022-11-30T01:09:09.151Z,10.73
2022-11-30T01:11:55.654Z,10.18
2022-11-30T01:14:35.683Z,10.05
2022-11-30T01:17:22.702Z,9.95
2022-11-30T01:20:02.772Z,9.55
2022-11-30T01:22:49.670Z,10.13
2022-11-30T01:28:23.683Z,10.70
2022-11-30T01:31:11.832Z,9.40
2022-11-30T01:34:07.699Z,10.00
2022-11-30T01:36:54.710Z,10.13
2022-11-30T01:39:41.676Z,9.75
2022-11-30T01:42:28.744Z,9.50
2022-11-30T01:45:10.712Z,10.20
2022-11-30T01:48:05.502Z,9.68
2022-11-30T01:50:45.668Z,10.13
2022-11-30T01:53:26.195Z,10.32
2022-11-30T01:56:12.719Z,9.82
2022-11-30T01:58:53.515Z,9.55
2022-11-30T02:01:39.728Z,10.05
2022-11-30T02:04:32.726Z,10.30
2022-11-30T02:07:21.796Z,9.85
2022-11-30T02:10:02.134Z,9.40
2022-11-30T02:12:58.695Z,9.57
2022-11-30T02:15:59.293Z,10.32
2022-11-30T02:19:13.676Z,10.13
2022-11-30T02:22:11.701Z,9.52
2022-11-30T02:25:10.723Z,10.20
2022-11-30T02:28:33.654Z,9.93
2022-11-30T02:31:17.875Z,9.63
2022-11-30T02:34:06.675Z,10.05
2022-11-30T02:36:47.808Z,9.90
2022-11-30T02:42:26.667Z,9.65
2022-11-30T02:45:15.658Z,9.75
2022-11-30T02:48:09.726Z,10.27
2022-11-30T02:51:04.669Z,9.88
2022-11-30T02:53:44.727Z,9.43
2022-11-30T02:56:32.702Z,9.73
2022-11-30T02:59:12.735Z,9.75
2022-11-30T03:01:59.708Z,9.70
2022-11-30T03:04:39.805Z,10.18
2022-11-30T03:07:26.707Z,9.95
2022-11-30T03:10:07.792Z,10.43
2022-11-30T03:15:41.746Z,10.02
2022-11-30T03:18:22.140Z,10.82
2022-11-30T03:21:08.707Z,10.25
2022-11-30T03:23:55.689Z,10.40
2022-11-30T03:26:35.766Z,9.93
2022-11-30T03:29:22.679Z,10.13
2022-11-30T03:32:09.666Z,10.50
2022-11-30T03:34:56.834Z,9.63
2022-11-30T03:37:36.669Z,10.50
2022-11-30T03:40:17.283Z,9.85
2022-11-30T03:43:03.667Z,9.88
2022-11-30T03:45:51.732Z,10.40
2022-11-30T03:48:32.677Z,10.07
2022-11-30T03:53:59.665Z,9.38
2022-11-30T03:56:40.254Z,9.75
2022-11-30T03:59:26.667Z,10.05
2022-11-30T04:02:07.155Z,11.70
2022-11-30T04:04:53.720Z,10.98
2022-11-30T04:07:40.727Z,11.23
2022-11-30T04:10:20.712Z,10.75
2022-11-30T04:13:07.663Z,10.38
2022-11-30T04:15:47.749Z,10.80
2022-11-30T04:18:36.692Z,10.18
2022-11-30T04:21:18.966Z,10.80
2022-11-30T04:24:05.684Z,10.93
2022-11-30T04:26:46.142Z,10.68
2022-11-30T04:29:32.674Z,9.88
2022-11-30T04:32:19.700Z,10.57
2022-11-30T04:35:06.662Z,10.40
2022-11-30T04:37:53.683Z,9.55
2022-11-30T04:40:34.367Z,10.63
2022-11-30T04:43:20.689Z,10.18
2022-11-30T04:46:01.148Z,10.98
2022-11-30T04:48:48.669Z,10.40
2022-11-30T04:51:29.149Z,10.40
2022-11-30T04:54:15.693Z,10.35
2022-11-30T04:57:02.882Z,10.60
2022-11-30T04:59:42.680Z,9.95
2022-11-30T05:02:23.148Z,9.70
2022-11-30T05:05:09.706Z,10.23
2022-11-30T05:08:00.738Z,9.60
2022-11-30T05:10:52.735Z,9.82
2022-11-30T05:13:33.147Z,9.85
2022-11-30T05:16:19.740Z,9.90
2022-11-30T05:19:06.721Z,9.63
2022-11-30T05:21:47.698Z,9.13
2022-11-30T05:27:20.910Z,10.23
2022-11-30T05:30:09.678Z,9.40
2022-11-30T05:32:49.802Z,9.65
2022-11-30T05:35:36.695Z,8.77
2022-11-30T05:38:16.805Z,9.95
2022-11-30T05:41:07.671Z,9.68
2022-11-30T05:43:47.764Z,10.02
2022-11-30T05:46:39.579Z,9.52
2022-11-30T05:49:20.812Z,9.50
2022-11-30T05:52:07.685Z,9.82
2022-11-30T05:54:48.021Z,9.73
2022-11-30T05:57:34.674Z,9.55
2022-11-30T06:00:22.706Z,9.68
2022-11-30T06:03:09.962Z,9.15
2022-11-30T06:05:49.663Z,9.25
2022-11-30T06:08:36.731Z,8.38
2022-11-30T06:11:17.685Z,9.57
2022-11-30T06:16:45.746Z,9.30
2022-11-30T06:22:12.726Z,8.88
2022-11-30T06:24:59.717Z,10.27
2022-11-30T06:27:39.700Z,9.68
2022-11-30T06:30:20.535Z,9.07
2022-11-30T06:33:06.696Z,8.77
2022-11-30T06:35:53.685Z,9.35
2022-11-30T06:38:34.725Z,9.32
2022-11-30T06:44:01.718Z,9.40
2022-11-30T06:46:48.668Z,9.50
2022-11-30T06:49:28.755Z,9.52
2022-11-30T06:52:15.679Z,8.70
2022-11-30T06:54:55.753Z,9.32
2022-11-30T06:57:42.681Z,9.23
2022-11-30T07:00:23.770Z,9.05
2022-11-30T07:03:12.692Z,8.65
2022-11-30T07:05:54.112Z,7.40
2022-11-30T07:11:27.688Z,7.00
2022-11-30T07:14:14.693Z,6.90
2022-11-30T07:17:01.693Z,7.35
2022-11-30T07:19:42.189Z,7.30
2022-11-30T07:22:28.707Z,7.15
2022-11-30T07:25:28.438Z,7.00
2022-11-30T07:28:15.688Z,6.95
2022-11-30T07:31:02.684Z,6.75
2022-11-30T07:33:56.731Z,6.88
2022-11-30T07:36:43.691Z,6.65
2022-11-30T07:39:24.694Z,6.05
2022-11-30T07:42:11.688Z,6.25
2022-11-30T07:44:59.428Z,6.05
2022-11-30T07:47:46.684Z,5.85
2022-11-30T07:53:13.688Z,5.60
2022-11-30T07:55:56.943Z,6.20
2022-11-30T07:58:44.726Z,5.68
2022-11-30T08:01:27.931Z,5.88
2022-11-30T08:04:14.715Z,5.70
2022-11-30T08:06:55.291Z,6.45
2022-11-30T08:09:41.695Z,5.93
2022-11-30T08:15:19.722Z,6.13
2022-11-30T08:18:00.198Z,5.60
2022-11-30T08:20:50.034Z,5.85
2022-11-30T08:23:36.748Z,5.35
2022-11-30T08:29:23.681Z,5.55
2022-11-30T08:32:04.589Z,6.32
2022-11-30T08:34:51.733Z,5.93
2022-11-30T08:40:19.691Z,5.22
2022-11-30T08:43:00.173Z,5.60
2022-11-30T08:45:46.740Z,5.88
2022-11-30T08:51:17.707Z,6.00
2022-11-30T08:53:58.216Z,6.00
2022-11-30T08:56:44.688Z,6.15
2022-11-30T09:02:11.798Z,5.43
2022-11-30T09:07:39.826Z,6.53
2022-11-30T09:13:06.800Z,5.90
2022-11-30T09:16:01.866Z,6.05
2022-11-30T09:18:42.054Z,6.03
2022-11-30T09:21:30.698Z,6.20
2022-11-30T09:24:17.729Z,6.13
2022-11-30T09:29:44.812Z,5.90
2022-11-30T09:32:31.691Z,5.95
2022-11-30T09:37:59.700Z,6.35
2022-11-30T09:40:47.797Z,6.75
2022-11-30T09:43:39.697Z,6.28
2022-11-30T09:46:34.745Z,6.78
2022-11-30T09:49:40.729Z,5.85
2022-11-30T09:53:04.858Z,6.55
2022-11-30T09:55:48.723Z,6.80
2022-11-30T09:59:02.691Z,7.22
2022-11-30T10:01:56.397Z,7.38
2022-11-30T10:04:37.184Z,7.10
2022-11-30T10:07:49.760Z,6.90
2022-11-30T10:10:56.717Z,6.68
2022-11-30T10:13:55.702Z,7.05
2022-11-30T10:16:51.290Z,7.60
2022-11-30T10:20:04.696Z,7.57
2022-11-30T10:23:03.304Z,7.70
2022-11-30T10:26:06.703Z,7.78
2022-11-30T10:28:53.989Z,7.70
2022-11-30T10:34:40.747Z,7.80
2022-11-30T10:37:36.737Z,8.00
2022-11-30T10:40:36.740Z,7.65
2022-11-30T10:43:46.705Z,8.25
2022-11-30T10:46:43.742Z,7.47
2022-11-30T10:49:26.824Z,7.75
2022-11-30T10:52:15.695Z,7.85
2022-11-30T10:55:06.747Z,7.75
2022-11-30T10:57:55.700Z,8.20
2022-11-30T11:00:35.811Z,7.97
2022-11-30T11:03:31.697Z,7.90
2022-11-30T11:06:17.792Z,8.13
2022-11-30T11:09:04.707Z,8.32
2022-11-30T11:14:37.898Z,7.75
2022-11-30T11:17:39.689Z,7.18
2022-11-30T11:20:31.273Z,7.72
2022-11-30T11:23:18.696Z,7.82
2022-11-30T11:26:05.678Z,7.78
2022-11-30T11:28:51.884Z,7.15
2022-11-30T11:31:45.700Z,7.60
2022-11-30T11:34:51.079Z,7.60
2022-11-30T11:37:40.723Z,7.93
2022-11-30T11:40:31.748Z,7.40
2022-11-30T11:43:16.884Z,7.10
2022-11-30T11:46:09.743Z,7.38
2022-11-30T11:49:00.475Z,7.68
2022-11-30T11:51:53.678Z,7.57
2022-11-30T11:54:47.066Z,7.72
2022-11-30T11:57:45.720Z,7.10
2022-11-30T12:00:26.602Z,7.15
2022-11-30T12:03:18.710Z,7.30
2022-11-30T12:06:04.212Z,7.50
2022-11-30T12:09:10.725Z,7.90
2022-11-30T12:11:57.845Z,7.55
2022-11-30T12:17:19.158Z,7.55
2022-11-30T12:20:37.741Z,7.53
2022-11-30T12:23:42.828Z,7.75
2022-11-30T12:26:28.716Z,7.82
2022-11-30T12:29:28.719Z,7.28
2022-11-30T12:32:19.813Z,7.90
2022-11-30T12:35:20.707Z,7.43
2022-11-30T12:38:23.512Z,8.57
2022-11-30T12:41:36.740Z,8.38
2022-11-30T12:44:44.751Z,7.70
2022-11-30T12:47:50.738Z,8.30
2022-11-30T12:51:14.879Z,8.73
2022-11-30T12:54:15.752Z,8.80
2022-11-30T12:57:31.943Z,8.25
2022-11-30T13:00:34.757Z,8.38
2022-11-30T13:03:24.796Z,9.00
2022-11-30T13:06:07.713Z,8.43
2022-11-30T13:09:10.726Z,8.35
2022-11-30T13:12:16.588Z,8.20
2022-11-30T13:15:14.076Z,9.10
2022-11-30T13:17:55.854Z,8.48
2022-11-30T13:21:07.764Z,8.70
2022-11-30T13:24:19.774Z,9.15
2022-11-30T13:27:08.786Z,9.18
2022-11-30T13:30:00.752Z,8.95
2022-11-30T13:32:57.919Z,9.15
2022-11-30T13:35:52.703Z,8.35
2022-11-30T13:38:39.771Z,8.10
2022-11-30T13:41:27.711Z,8.43
2022-11-30T13:44:31.644Z,9.07
2022-11-30T13:47:42.801Z,8.55
2022-11-30T13:50:37.716Z,8.73
2022-11-30T13:53:40.734Z,8.77
2022-11-30T13:56:27.760Z,7.63
2022-11-30T13:59:41.278Z,8.27
2022-11-30T14:02:40.698Z,8.32
2022-11-30T14:05:30.742Z,8.00
2022-11-30T14:08:17.958Z,8.45
2022-11-30T14:11:06.736Z,7.95
2022-11-30T14:13:47.319Z,8.05
2022-11-30T14:16:37.744Z,7.78
2022-11-30T14:19:19.084Z,7.57
2022-11-30T14:22:05.739Z,7.75
2022-11-30T14:27:42.720Z,7.68
2022-11-30T14:30:30.852Z,8.43
2022-11-30T14:33:26.990Z,7.78
2022-11-30T14:36:29.757Z,7.70
2022-11-30T14:39:43.715Z,7.47
2022-11-30T14:42:37.906Z,7.47
2022-11-30T14:45:30.894Z,7.43
2022-11-30T14:48:26.711Z,7.65
2022-11-30T14:51:10.743Z,7.63
2022-11-30T14:54:07.755Z,7.25
2022-11-30T14:56:56.770Z,7.45
2022-11-30T15:00:03.714Z,6.78
2022-11-30T15:02:51.730Z,7.38
2022-11-30T15:05:32.780Z,7.55
2022-11-30T15:08:23.736Z,7.97
2022-11-30T15:11:09.920Z,7.38
2022-11-30T15:14:13.711Z,7.20
2022-11-30T15:17:01.827Z,7.60
2022-11-30T15:19:53.712Z,6.97
2022-11-30T15:22:47.731Z,7.32
2022-11-30T15:25:37.954Z,7.57
2022-11-30T15:28:30.709Z,7.22
2022-11-30T15:31:21.759Z,7.28
2022-11-30T15:34:08.702Z,7.85
2022-11-30T15:37:02.751Z,7.65
2022-11-30T15:39:55.543Z,7.88
2022-11-30T15:42:49.742Z,8.32
2022-11-30T15:45:41.199Z,7.53
2022-11-30T15:48:39.735Z,7.88
2022-11-30T15:51:30.710Z,7.38
2022-11-30T15:54:10.823Z,7.63
2022-11-30T15:57:08.864Z,7.65
2022-11-30T15:59:56.727Z,7.85
2022-11-30T16:02:38.413Z,7.75
2022-11-30T16:05:27.819Z,8.10
2022-11-30T16:08:16.635Z,7.80
2022-11-30T16:11:07.828Z,7.80
2022-11-30T16:13:54.729Z,8.50
2022-11-30T16:16:37.818Z,8.18
2022-11-30T16:19:24.711Z,8.20
2022-11-30T16:24:58.806Z,8.70
2022-11-30T16:30:29.781Z,8.73
2022-11-30T16:33:09.739Z,8.63
2022-11-30T16:36:14.726Z,8.02
2022-11-30T16:38:57.723Z,7.85
2022-11-30T16:41:44.733Z,8.32
2022-11-30T16:47:11.784Z,8.05
2022-11-30T16:52:38.736Z,7.93
2022-11-30T16:55:26.818Z,8.80
2022-11-30T16:58:13.719Z,8.50
2022-11-30T17:03:42.740Z,10.30
2022-11-30T17:06:28.894Z,9.10
2022-11-30T17:09:19.763Z,9.15
2022-11-30T17:12:06.734Z,8.65
2022-11-30T17:17:40.755Z,9.10
2022-11-30T17:23:07.759Z,8.68
2022-11-30T17:25:49.279Z,8.57
2022-11-30T17:28:35.730Z,9.25
2022-11-30T17:34:02.751Z,8.73
2022-11-30T17:39:37.771Z,8.57
2022-11-30T17:42:24.726Z,8.85
2022-11-30T17:47:58.723Z,10.00
2022-11-30T17:53:25.774Z,8.68
2022-11-30T17:59:07.831Z,9.23
2022-11-30T18:04:28.230Z,9.10
2022-11-30T18:07:14.764Z,8.27
2022-11-30T18:12:41.731Z,8.95
2022-11-30T18:18:08.748Z,9.27
2022-11-30T18:23:42.753Z,9.23
2022-11-30T18:29:10.863Z,9.43
2022-11-30T18:31:57.734Z,9.73
2022-11-30T18:37:42.772Z,9.65
2022-11-30T18:43:16.742Z,10.30
2022-11-30T18:49:08.715Z,9.82
2022-11-30T18:51:48.894Z,10.43
2022-11-30T18:54:37.732Z,10.07
2022-11-30T18:57:17.812Z,10.57
2022-11-30T19:00:04.731Z,10.20
2022-11-30T19:05:44.749Z,9.25
2022-11-30T19:08:24.787Z,10.32
2022-11-30T19:11:14.780Z,10.43
2022-11-30T19:13:54.861Z,10.65
2022-11-30T19:16:41.800Z,10.38
2022-11-30T19:22:15.752Z,10.10
2022-11-30T19:27:42.719Z,10.95
2022-11-30T19:33:09.723Z,10.10
2022-11-30T19:38:44.469Z,10.30
2022-11-30T19:41:31.734Z,11.18
2022-11-30T19:44:21.753Z,11.15
2022-11-30T19:47:01.820Z,11.13
2022-11-30T19:49:48.723Z,11.32
2022-11-30T19:55:15.791Z,10.40
2022-11-30T20:00:42.737Z,11.60
2022-11-30T20:06:10.231Z,11.05
2022-11-30T20:08:56.756Z,10.43
2022-11-30T20:14:23.864Z,11.75
2022-11-30T20:17:10.828Z,11.68
2022-11-30T20:22:39.785Z,11.48
2022-11-30T20:25:21.132Z,10.95
2022-11-30T20:28:12.428Z,11.27
2022-11-30T20:30:52.837Z,11.23
2022-11-30T20:33:39.759Z,11.25
2022-11-30T20:39:16.726Z,11.15
2022-11-30T20:41:56.871Z,11.30
2022-11-30T20:44:43.747Z,12.13
2022-11-30T20:50:12.741Z,11.90
2022-11-30T20:52:52.770Z,12.25
2022-11-30T20:55:39.740Z,12.70
2022-11-30T21:01:23.031Z,12.35
2022-11-30T21:04:02.824Z,11.85
2022-11-30T21:06:45.446Z,12.23
2022-11-30T21:09:32.742Z,11.60
2022-11-30T21:12:19.817Z,11.90
2022-11-30T21:14:59.742Z,12.55
2022-11-30T21:17:40.405Z,14.52
2022-11-30T21:20:26.983Z,13.82
2022-11-30T21:23:07.218Z,14.45
2022-11-30T21:25:54.111Z,14.75
2022-11-30T21:28:42.071Z,14.77
2022-11-30T21:31:22.933Z,13.88
2022-11-30T21:34:09.751Z,14.02
2022-11-30T21:36:58.742Z,14.93
2022-11-30T21:39:45.764Z,14.50
2022-11-30T21:45:12.766Z,15.10
2022-11-30T21:47:59.747Z,15.13
2022-11-30T21:50:46.744Z,14.77
2022-11-30T21:53:26.886Z,15.05
2022-11-30T21:56:18.748Z,14.65
2022-11-30T21:58:59.904Z,15.82
2022-11-30T22:01:48.744Z,15.20
2022-11-30T22:04:28.936Z,15.70
2022-11-30T22:07:18.866Z,15.73
2022-11-30T22:09:58.869Z,15.63
2022-11-30T22:12:45.768Z,14.75
2022-11-30T22:18:12.831Z,15.85
2022-11-30T22:23:42.755Z,15.52
2022-11-30T22:26:29.894Z,15.40
2022-11-30T22:29:23.743Z,15.85
2022-11-30T22:32:10.744Z,16.08
2022-11-30T22:34:57.764Z,14.60
2022-11-30T22:37:37.986Z,15.38
2022-11-30T22:40:24.751Z,14.85
2022-11-30T22:43:12.746Z,15.07
2022-11-30T22:45:59.848Z,15.10
2022-11-30T22:51:28.880Z,15.27
2022-11-30T22:54:09.777Z,15.00
2022-11-30T22:56:50.291Z,15.55
2022-11-30T22:59:36.762Z,15.80
2022-11-30T23:02:23.771Z,16.92
2022-11-30T23:07:50.796Z,16.92
2022-11-30T23:10:30.892Z,16.23
2022-11-30T23:13:17.752Z,15.93
2022-11-30T23:16:05.738Z,15.93
2022-11-30T23:18:55.360Z,16.42
2022-11-30T23:21:43.784Z,16.05
2022-11-30T23:24:24.267Z,15.23
2022-11-30T23:27:10.748Z,15.90
2022-11-30T23:29:57.803Z,15.45
2022-11-30T23:35:38.828Z,16.40
2022-11-30T23:38:25.755Z,15.68
2022-11-30T23:41:23.855Z,16.33
2022-11-30T23:44:11.843Z,16.13
2022-11-30T23:46:58.797Z,16.08
2022-11-30T23:49:45.890Z,16.60
2022-11-30T23:52:25.876Z,16.58
2022-11-30T23:55:13.747Z,15.88
2022-11-30T23:57:53.809Z,16.13
